Portada
METAR-TAF:

METAR-TAF

Aeroports :

Bangalore, Índia

latitud: 12-57-00N, longitud: 077-40-06E, altitud: 888 m

Observació

L'informe es va fer fa 46 minuts, a les 14:00 UTC
Vent 6 kt del Est/Nord-Est
Temperatura 25°C
Humitat 61%
Pressió 1016 hPa
Visibilitat: 6000 m
Escasses núvols a una alçada de 1200 ft

METAR: VOBG 131400Z 07006KT 6000 FEW012 25/17 Q1016 NOSIG

Hora: 20:16 (14:46 UTC)

Pronòstic

L'informe es va fer fa 46 minuts, a les 14:00 UTC
Pronòstic vàlid del 13 a les 15 UTC al 13 a les 24 UTC
Vent 5 kt del Est
Visibilitat: 6000 m
Núvols disperses a una alçada de 1200 ft
Evolucionant progressivament
l' 13 a les 19 UTC al 13 a les 20 UTC
Visibilitat: 3000 m
Núvols disperses a una alçada de 800 ft
boirina
Temporalment
l' 13 a les 22 UTC al 13 a les 24 UTC
Visibilitat: 1500 m
Cel ennuvolat a una alçada de 600 ft
boirina

TAF: VOBG 131400Z 1315/1324 09005KT 6000 SCT012 BECMG 1319/1320 3000 BR SCT008 TEMPO 1322/1324 1500 BR BKN006

Observacions i pronòstics meteorològics de més de 4000 aeroports (METAR i TAF).

Les estacions disponibles són els punts grocs i vermells al mapa.

Posi el ratolí al punt desitjat per veure el nom de l'estació.

Feu clic per veure les observacions i els pronòstics meteorològics.

Per canviar el mapa: feu clic els botons verds amb una creu de color negre per apropar; al botó verd amb un guió per allunyar la imatge; o en les fletxes verdes per a mapes adjacents.


METAR-TAF: